Vansant, Virginia
Current Conditions -  °F | °C
As of 3:15 PM on Saturday 25 Oct 2014 (Local Time) from KJFZ Reporting Station
Overcast Overcast  
Wind Chill: 65°   Ceiling: 5000
Heat Index: 65°   Visibility: 10mi
Dew Point: 46°   Wind: 0mph
Humidity: 50%   Direction: NA
Pressure: 30.01"   Gusts: NA
Location:  37.23°N, 82.1°W
Report Text: KJFZ 251915Z AUTO 00000KT 10SM OVC050 19/08 A3001 RMK AO2 T01850078
Loading
Personal Weather Stations






























Interactive Weather Map
Tropical Storm Tracking
New forecast layout! Learn more

10-Day Weather Forecast

Advertisements
Track Severe Weather on mobile